createdAt,value
2023-02-04T00:00:52.759Z,19.72
2023-02-04T00:03:23.251Z,19.78
2023-02-04T00:05:52.703Z,19.83
2023-02-04T00:08:23.349Z,19.88
2023-02-04T00:10:53.020Z,19.84
2023-02-04T00:13:23.171Z,19.87
2023-02-04T00:15:52.574Z,19.95
2023-02-04T00:18:23.028Z,19.89
2023-02-04T00:20:52.401Z,19.73
2023-02-04T00:23:22.163Z,19.51
2023-02-04T00:25:52.242Z,19.57
2023-02-04T00:28:21.370Z,19.57
2023-02-04T00:30:51.494Z,19.61
2023-02-04T00:33:20.783Z,19.54
2023-02-04T00:35:49.175Z,19.43
2023-02-04T00:38:19.469Z,19.31
2023-02-04T00:40:49.271Z,19.17
2023-02-04T00:43:21.185Z,19.22
2023-02-04T00:45:50.931Z,19.28
2023-02-04T00:48:20.089Z,19.44
2023-02-04T00:50:49.035Z,19.40
2023-02-04T00:53:19.266Z,19.37
2023-02-04T00:55:49.434Z,19.30
2023-02-04T00:58:20.534Z,19.23
2023-02-04T01:00:49.021Z,19.16
2023-02-04T01:03:19.867Z,19.13
2023-02-04T01:05:49.154Z,19.14
2023-02-04T01:08:19.487Z,19.21
2023-02-04T01:10:48.997Z,19.30
2023-02-04T01:13:18.566Z,19.37
2023-02-04T01:15:49.193Z,19.31
2023-02-04T01:18:19.590Z,19.25
2023-02-04T01:20:48.749Z,19.16
2023-02-04T01:23:18.838Z,19.05
2023-02-04T01:25:48.500Z,18.98
2023-02-04T01:28:18.737Z,18.91
2023-02-04T01:30:51.873Z,18.79
2023-02-04T01:33:24.189Z,18.82
2023-02-04T01:35:53.214Z,18.76
2023-02-04T01:38:22.880Z,18.81
2023-02-04T01:40:52.482Z,18.92
2023-02-04T01:43:25.102Z,18.89
2023-02-04T01:45:58.224Z,18.65
2023-02-04T01:49:01.031Z,18.83
2023-02-04T01:51:33.647Z,19.03
2023-02-04T01:54:03.849Z,19.03
2023-02-04T01:56:34.946Z,19.05
2023-02-04T01:59:10.770Z,19.16
2023-02-04T02:01:44.138Z,19.13
2023-02-04T02:04:20.821Z,19.13
2023-02-04T02:06:59.298Z,19.11
2023-02-04T02:09:32.069Z,19.04
2023-02-04T02:12:04.895Z,18.93
2023-02-04T02:14:35.063Z,18.83
2023-02-04T02:17:05.489Z,18.78
2023-02-04T02:19:40.865Z,18.70
2023-02-04T02:22:30.863Z,18.72
2023-02-04T02:25:01.980Z,18.80
2023-02-04T02:27:35.350Z,18.74
2023-02-04T02:30:08.086Z,18.77
2023-02-04T02:32:39.806Z,18.82
2023-02-04T02:35:11.645Z,18.79
2023-02-04T02:37:43.002Z,18.75
2023-02-04T02:40:16.718Z,18.61
2023-02-04T02:42:49.088Z,18.51
2023-02-04T02:45:35.175Z,18.50
2023-02-04T02:48:04.456Z,18.56
2023-02-04T02:50:35.156Z,18.32
2023-02-04T02:53:05.114Z,18.13
2023-02-04T02:55:35.430Z,18.03
2023-02-04T02:58:41.161Z,18.01
2023-02-04T03:01:11.900Z,18.24
2023-02-04T03:03:48.647Z,18.20
2023-02-04T03:06:24.457Z,18.17
2023-02-04T03:08:59.902Z,18.20
2023-02-04T03:11:33.310Z,18.10
2023-02-04T03:14:12.711Z,17.77
2023-02-04T03:16:45.017Z,17.99
2023-02-04T03:19:16.513Z,18.08
2023-02-04T03:21:47.792Z,18.09
2023-02-04T03:24:19.048Z,18.15
2023-02-04T03:26:49.293Z,18.18
2023-02-04T03:29:19.324Z,18.05
2023-02-04T03:31:51.429Z,18.08
2023-02-04T03:34:20.837Z,18.15
2023-02-04T03:36:49.883Z,18.15
2023-02-04T03:39:19.384Z,18.20
2023-02-04T03:41:49.211Z,18.22
2023-02-04T03:44:20.124Z,18.26
2023-02-04T03:46:49.385Z,18.17
2023-02-04T03:49:19.490Z,18.16
2023-02-04T03:51:49.205Z,18.12
2023-02-04T03:54:18.345Z,18.08
2023-02-04T03:56:47.724Z,18.07
2023-02-04T03:59:17.226Z,18.05
2023-02-04T04:01:47.293Z,18.06
2023-02-04T04:04:17.020Z,18.12
2023-02-04T04:06:47.397Z,18.25
2023-02-04T04:09:17.246Z,18.25
2023-02-04T04:11:47.013Z,18.19
2023-02-04T04:14:16.090Z,18.13
2023-02-04T04:16:44.905Z,18.13
2023-02-04T04:19:15.174Z,18.16
2023-02-04T04:21:44.356Z,18.21
2023-02-04T04:24:13.487Z,18.16
2023-02-04T04:26:43.220Z,18.14
2023-02-04T04:29:12.101Z,18.14
2023-02-04T04:31:41.840Z,18.04
2023-02-04T04:34:12.804Z,18.06
2023-02-04T04:36:41.935Z,17.97
2023-02-04T04:39:12.751Z,17.11
2023-02-04T04:41:42.712Z,17.73
2023-02-04T04:44:11.787Z,17.95
2023-02-04T04:46:41.284Z,17.91
2023-02-04T04:49:10.998Z,17.94
2023-02-04T04:51:41.231Z,17.92
2023-02-04T04:54:11.184Z,17.94
2023-02-04T04:56:42.158Z,17.89
2023-02-04T04:59:11.421Z,17.78
2023-02-04T05:01:40.994Z,17.64
2023-02-04T05:04:10.868Z,17.62
2023-02-04T05:06:40.994Z,17.57
2023-02-04T05:09:11.019Z,17.53
2023-02-04T05:11:40.527Z,17.55
2023-02-04T05:14:10.738Z,17.49
2023-02-04T05:16:40.750Z,17.40
2023-02-04T05:19:11.091Z,17.47
2023-02-04T05:21:40.750Z,17.55
2023-02-04T05:24:09.115Z,17.65
2023-02-04T05:26:42.034Z,17.71
2023-02-04T05:29:12.270Z,17.79
2023-02-04T05:31:41.821Z,16.83
2023-02-04T05:34:11.258Z,16.59
2023-02-04T05:36:42.144Z,17.42
2023-02-04T05:39:11.787Z,17.52
2023-02-04T05:41:41.646Z,17.65
2023-02-04T05:44:10.927Z,17.77
2023-02-04T05:46:40.783Z,17.68
2023-02-04T05:49:11.825Z,17.63
2023-02-04T05:51:41.870Z,17.70
2023-02-04T05:54:12.156Z,17.81
2023-02-04T05:56:41.612Z,17.47
2023-02-04T05:59:10.912Z,17.60
2023-02-04T06:01:40.920Z,17.61
2023-02-04T06:04:11.140Z,17.60
2023-02-04T06:06:40.938Z,16.64
2023-02-04T06:09:10.424Z,16.42
2023-02-04T06:11:40.957Z,16.35
2023-02-04T06:14:12.060Z,16.33
2023-02-04T06:16:42.471Z,16.34
2023-02-04T06:19:11.898Z,16.36
2023-02-04T06:21:41.531Z,16.39
2023-02-04T06:24:11.232Z,16.33
2023-02-04T06:26:43.038Z,17.12
2023-02-04T06:29:11.681Z,17.43
2023-02-04T06:31:42.639Z,17.46
2023-02-04T06:34:12.092Z,17.37
2023-02-04T06:36:41.622Z,17.54
2023-02-04T06:39:11.046Z,17.57
2023-02-04T06:41:41.171Z,17.48
2023-02-04T06:44:10.946Z,17.51
2023-02-04T06:46:39.990Z,17.52
2023-02-04T06:49:08.951Z,17.47
2023-02-04T06:51:37.835Z,17.50
2023-02-04T06:54:08.708Z,17.40
2023-02-04T06:56:39.128Z,17.46
2023-02-04T06:59:09.423Z,17.49
2023-02-04T07:01:39.110Z,17.50
2023-02-04T07:04:08.783Z,17.49
2023-02-04T07:06:40.801Z,16.92
2023-02-04T07:09:10.557Z,17.34
2023-02-04T07:11:40.669Z,17.35
2023-02-04T07:14:11.160Z,17.28
2023-02-04T07:16:41.418Z,17.18
2023-02-04T07:19:11.276Z,17.16
2023-02-04T07:21:40.553Z,17.13
2023-02-04T07:24:09.255Z,17.17
2023-02-04T07:26:39.375Z,17.20
2023-02-04T07:29:17.345Z,17.21
2023-02-04T07:31:52.828Z,17.19
2023-02-04T07:34:24.351Z,17.19
2023-02-04T07:36:55.082Z,17.17
2023-02-04T07:39:25.148Z,17.14
2023-02-04T07:41:54.640Z,17.18
2023-02-04T07:44:29.992Z,17.22
2023-02-04T07:47:00.495Z,17.32
2023-02-04T07:49:30.516Z,17.38
2023-02-04T07:52:00.601Z,17.42
2023-02-04T07:54:31.034Z,17.46
2023-02-04T07:57:01.969Z,17.47
2023-02-04T07:59:30.977Z,17.53
2023-02-04T08:02:03.304Z,17.54
2023-02-04T08:04:33.161Z,17.62
2023-02-04T08:07:03.459Z,17.64
2023-02-04T08:09:32.744Z,17.68
2023-02-04T08:12:01.712Z,17.69
2023-02-04T08:14:31.866Z,17.70
2023-02-04T08:17:01.898Z,17.70
2023-02-04T08:19:32.526Z,17.73
2023-02-04T08:22:01.662Z,17.67
2023-02-04T08:24:31.098Z,17.58
2023-02-04T08:27:01.891Z,17.57
2023-02-04T08:29:32.244Z,17.61
2023-02-04T08:32:04.855Z,17.57
2023-02-04T08:34:35.363Z,17.63
2023-02-04T08:37:05.940Z,17.64
2023-02-04T08:39:35.360Z,17.67
2023-02-04T08:42:05.207Z,17.68
2023-02-04T08:44:36.732Z,17.72
2023-02-04T08:47:05.571Z,17.71
2023-02-04T08:49:35.366Z,17.71
2023-02-04T08:52:07.167Z,17.67
2023-02-04T08:54:37.811Z,17.68
2023-02-04T08:57:07.969Z,17.68
2023-02-04T08:59:37.452Z,17.68
2023-02-04T09:02:08.385Z,17.71
2023-02-04T09:04:38.265Z,17.67
2023-02-04T09:07:09.557Z,17.69
2023-02-04T09:09:39.707Z,17.67
2023-02-04T09:12:09.518Z,17.66
2023-02-04T09:14:42.960Z,17.61
2023-02-04T09:17:13.413Z,17.64
2023-02-04T09:19:43.585Z,17.65
2023-02-04T09:22:13.933Z,17.60
2023-02-04T09:24:44.436Z,17.66
2023-02-04T09:27:13.387Z,17.62
2023-02-04T09:29:42.997Z,17.64
2023-02-04T09:32:12.623Z,17.61
2023-02-04T09:34:43.307Z,17.57
2023-02-04T09:37:12.726Z,17.58
2023-02-04T09:39:42.888Z,17.57
2023-02-04T09:42:18.864Z,16.97
2023-02-04T09:44:48.784Z,16.46
2023-02-04T09:47:23.486Z,16.29
2023-02-04T09:49:53.274Z,16.27
2023-02-04T09:52:25.218Z,16.16
2023-02-04T09:54:57.129Z,16.14
2023-02-04T09:57:31.005Z,16.08
2023-02-04T10:00:03.169Z,16.06
2023-02-04T10:02:37.212Z,16.07
2023-02-04T10:05:13.895Z,16.06
2023-02-04T10:07:44.940Z,16.08
2023-02-04T10:10:21.444Z,16.06
2023-02-04T10:12:54.851Z,16.07
2023-02-04T10:15:25.164Z,16.06
2023-02-04T10:18:08.165Z,16.12
2023-02-04T10:20:42.711Z,16.23
2023-02-04T10:23:12.886Z,16.32
2023-02-04T10:25:42.863Z,16.29
2023-02-04T10:28:11.259Z,16.22
2023-02-04T10:30:44.511Z,16.15
2023-02-04T10:33:30.754Z,16.14
2023-02-04T10:36:01.744Z,16.10
2023-02-04T10:38:32.260Z,16.09
2023-02-04T10:41:07.065Z,16.05
2023-02-04T10:43:36.443Z,16.48
2023-02-04T10:46:06.572Z,16.32
2023-02-04T10:48:44.685Z,16.17
2023-02-04T10:51:15.830Z,16.14
2023-02-04T10:54:04.672Z,16.09
2023-02-04T10:56:35.516Z,16.13
2023-02-04T10:59:04.897Z,16.08
2023-02-04T11:01:33.606Z,16.05
2023-02-04T11:04:05.169Z,16.07
2023-02-04T11:06:35.896Z,16.04
2023-02-04T11:09:06.418Z,16.06
2023-02-04T11:11:35.669Z,16.10
2023-02-04T11:14:05.541Z,16.16
2023-02-04T11:16:40.316Z,16.23
2023-02-04T11:19:16.527Z,16.17
2023-02-04T11:21:47.607Z,16.22
2023-02-04T11:24:17.478Z,16.16
2023-02-04T11:26:51.742Z,16.13
2023-02-04T11:29:26.791Z,16.05
2023-02-04T11:32:03.535Z,16.10
2023-02-04T11:34:45.406Z,16.12
2023-02-04T11:37:20.836Z,16.07
2023-02-04T11:39:52.811Z,16.14
2023-02-04T11:42:54.632Z,16.09
2023-02-04T11:45:38.786Z,16.15
2023-02-04T11:48:24.034Z,16.09
2023-02-04T11:51:05.256Z,16.09
2023-02-04T11:53:36.098Z,16.09
2023-02-04T11:56:05.495Z,16.04
2023-02-04T11:58:35.516Z,16.00
2023-02-04T12:01:04.791Z,16.02
2023-02-04T12:03:36.921Z,16.01
2023-02-04T12:06:08.715Z,15.98
2023-02-04T12:08:39.075Z,16.00
2023-02-04T12:11:12.314Z,15.97
2023-02-04T12:13:50.859Z,16.00
2023-02-04T12:16:21.790Z,16.02
2023-02-04T12:18:52.699Z,16.04
2023-02-04T12:21:22.120Z,16.04
2023-02-04T12:23:51.276Z,16.04
2023-02-04T12:26:20.466Z,16.07
2023-02-04T12:28:49.010Z,16.09
2023-02-04T12:31:19.435Z,16.08
2023-02-04T12:33:49.012Z,16.04
2023-02-04T12:36:19.431Z,16.05
2023-02-04T12:38:48.856Z,16.52
2023-02-04T12:41:17.680Z,17.24
2023-02-04T12:43:51.234Z,17.45
2023-02-04T12:46:21.054Z,17.59
2023-02-04T12:48:51.099Z,17.66
2023-02-04T12:51:21.482Z,17.71
2023-02-04T12:53:52.120Z,17.73
2023-02-04T12:56:24.895Z,17.72
2023-02-04T12:58:57.467Z,17.83
2023-02-04T13:01:31.947Z,17.85
2023-02-04T13:04:03.299Z,17.83
2023-02-04T13:06:33.507Z,17.86
2023-02-04T13:09:03.519Z,17.86
2023-02-04T13:11:35.448Z,17.83
2023-02-04T13:14:05.417Z,17.91
2023-02-04T13:16:39.606Z,17.93
2023-02-04T13:19:09.397Z,17.98
2023-02-04T13:21:40.659Z,17.30
2023-02-04T13:24:10.281Z,17.70
2023-02-04T13:26:41.363Z,17.88
2023-02-04T13:29:11.077Z,17.99
2023-02-04T13:31:42.661Z,18.15
2023-02-04T13:34:12.827Z,18.18
2023-02-04T13:36:44.632Z,18.26
2023-02-04T13:39:13.636Z,18.31
2023-02-04T13:41:45.150Z,18.36
2023-02-04T13:44:15.430Z,18.45
2023-02-04T13:46:46.479Z,18.50
2023-02-04T13:49:16.497Z,18.61
2023-02-04T13:51:45.372Z,18.68
2023-02-04T13:54:15.543Z,18.81
2023-02-04T13:56:45.487Z,18.95
2023-02-04T13:59:16.045Z,19.08
2023-02-04T14:01:45.230Z,19.22
2023-02-04T14:04:15.840Z,19.46
2023-02-04T14:06:46.345Z,19.67
2023-02-04T14:09:16.786Z,19.88
2023-02-04T14:11:45.739Z,20.16
2023-02-04T14:14:15.978Z,20.37
2023-02-04T14:16:45.044Z,20.56
2023-02-04T14:19:15.285Z,20.72
2023-02-04T14:21:44.460Z,20.86
2023-02-04T14:24:13.468Z,21.00
2023-02-04T14:26:43.640Z,21.10
2023-02-04T14:29:12.635Z,21.09
2023-02-04T14:31:41.475Z,21.14
2023-02-04T14:34:11.264Z,21.18
2023-02-04T14:36:42.035Z,21.21
2023-02-04T14:39:11.239Z,21.25
2023-02-04T14:41:41.308Z,21.28
2023-02-04T14:44:11.174Z,21.35
2023-02-04T14:46:43.732Z,21.42
2023-02-04T14:49:13.657Z,21.49
2023-02-04T14:51:43.869Z,21.58
2023-02-04T14:54:12.729Z,21.58
2023-02-04T14:56:43.404Z,21.56
2023-02-04T14:59:13.213Z,21.55
2023-02-04T15:01:43.560Z,21.53
2023-02-04T15:04:13.573Z,21.63
2023-02-04T15:06:43.387Z,21.75
2023-02-04T15:09:12.463Z,21.83
2023-02-04T15:11:43.284Z,21.92
2023-02-04T15:14:12.440Z,21.99
2023-02-04T15:16:44.732Z,22.15
2023-02-04T15:19:13.493Z,22.44
2023-02-04T15:21:43.086Z,22.50
2023-02-04T15:24:13.544Z,22.51
2023-02-04T15:26:43.403Z,22.52
2023-02-04T15:29:12.721Z,22.50
2023-02-04T15:31:42.691Z,22.55
2023-02-04T15:34:12.181Z,22.55
2023-02-04T15:36:42.156Z,22.49
2023-02-04T15:39:11.680Z,22.48
2023-02-04T15:41:42.173Z,22.58
2023-02-04T15:44:13.237Z,22.75
2023-02-04T15:46:43.238Z,22.93
2023-02-04T15:49:12.400Z,23.12
2023-02-04T15:51:42.831Z,23.36
2023-02-04T15:54:11.600Z,23.51
2023-02-04T15:56:42.111Z,23.84
2023-02-04T15:59:11.440Z,24.10
2023-02-04T16:01:41.068Z,24.57
2023-02-04T16:04:11.406Z,24.92
2023-02-04T16:06:50.165Z,25.09
2023-02-04T16:09:23.435Z,25.17
2023-02-04T16:11:52.474Z,25.41
2023-02-04T16:14:21.703Z,25.59
2023-02-04T16:16:51.219Z,26.02
2023-02-04T16:19:19.857Z,26.48
2023-02-04T16:21:49.391Z,26.69
2023-02-04T16:24:19.885Z,26.63
2023-02-04T16:26:49.384Z,26.38
2023-02-04T16:29:19.423Z,26.18
2023-02-04T16:31:49.344Z,26.22
2023-02-04T16:34:19.424Z,26.58
2023-02-04T16:36:48.773Z,26.76
2023-02-04T16:39:17.551Z,26.71
2023-02-04T16:41:47.950Z,26.62
2023-02-04T16:44:17.217Z,26.43
2023-02-04T16:46:49.616Z,26.48
2023-02-04T16:49:21.221Z,26.58
2023-02-04T16:51:51.534Z,26.56
2023-02-04T16:54:21.244Z,26.61
2023-02-04T16:56:51.604Z,26.70
2023-02-04T16:59:21.103Z,26.73
2023-02-04T17:01:49.985Z,26.84
2023-02-04T17:04:21.070Z,27.10
2023-02-04T17:06:52.875Z,27.68
2023-02-04T17:09:22.700Z,28.32
2023-02-04T17:11:52.513Z,28.93
2023-02-04T17:14:24.820Z,29.39
2023-02-04T17:16:54.200Z,29.47
2023-02-04T17:19:24.608Z,29.38
2023-02-04T17:21:54.700Z,29.43
2023-02-04T17:24:25.149Z,29.90
2023-02-04T17:26:53.740Z,29.75
2023-02-04T17:29:24.771Z,29.43
2023-02-04T17:31:55.742Z,29.15
2023-02-04T17:34:25.471Z,28.84
2023-02-04T17:36:55.855Z,28.51
2023-02-04T17:39:26.112Z,28.10
2023-02-04T17:41:59.021Z,27.70
2023-02-04T17:44:30.108Z,27.72
2023-02-04T17:47:03.418Z,27.89
2023-02-04T17:49:33.973Z,27.66
2023-02-04T17:52:04.661Z,27.46
2023-02-04T17:54:35.513Z,27.29
2023-02-04T17:57:20.420Z,27.08
2023-02-04T17:59:51.184Z,26.82
2023-02-04T18:02:27.865Z,26.51
2023-02-04T18:05:07.037Z,26.34
2023-02-04T18:07:37.248Z,26.21
2023-02-04T18:10:26.586Z,26.21
2023-02-04T18:12:58.428Z,26.10
2023-02-04T18:15:33.413Z,25.91
2023-02-04T18:18:25.454Z,25.68
2023-02-04T18:21:03.408Z,25.48
2023-02-04T18:23:33.807Z,25.39
2023-02-04T18:26:27.931Z,25.49
2023-02-04T18:29:01.449Z,25.49
2023-02-04T18:31:36.351Z,25.53
2023-02-04T18:34:35.621Z,25.87
2023-02-04T18:37:30.121Z,25.91
2023-02-04T18:40:10.826Z,25.87
2023-02-04T18:42:44.812Z,25.85
2023-02-04T18:45:34.243Z,26.04
2023-02-04T18:48:25.847Z,26.12
2023-02-04T18:51:00.645Z,25.94
2023-02-04T18:53:31.485Z,25.83
2023-02-04T18:56:02.869Z,25.92
2023-02-04T18:58:42.098Z,25.99
2023-02-04T19:01:11.316Z,26.00
2023-02-04T19:03:46.253Z,25.99
2023-02-04T19:06:39.521Z,25.92
2023-02-04T19:09:12.175Z,25.88
2023-02-04T19:11:47.279Z,25.81
2023-02-04T19:14:37.909Z,25.94
2023-02-04T19:17:22.382Z,25.88
2023-02-04T19:19:54.059Z,25.78
2023-02-04T19:22:37.606Z,25.72
2023-02-04T19:25:25.610Z,25.82
2023-02-04T19:28:00.115Z,25.75
2023-02-04T19:30:29.849Z,25.67
2023-02-04T19:33:02.886Z,25.74
2023-02-04T19:35:42.858Z,25.81
2023-02-04T19:38:46.049Z,25.95
2023-02-04T19:41:24.953Z,25.95
2023-02-04T19:44:17.300Z,25.82
2023-02-04T19:46:46.879Z,25.84
2023-02-04T19:49:30.385Z,25.64
2023-02-04T19:52:01.629Z,25.71
2023-02-04T19:54:39.997Z,25.60
2023-02-04T19:57:27.469Z,25.64
2023-02-04T19:59:58.262Z,25.72
2023-02-04T20:02:36.251Z,25.72
2023-02-04T20:05:21.994Z,25.78
2023-02-04T20:07:51.372Z,25.65
2023-02-04T20:10:30.439Z,25.63
2023-02-04T20:13:13.261Z,25.73
2023-02-04T20:15:42.500Z,25.75
2023-02-04T20:18:20.689Z,25.81
2023-02-04T20:20:49.602Z,25.81
2023-02-04T20:23:36.408Z,25.95
2023-02-04T20:26:05.532Z,25.96
2023-02-04T20:28:38.553Z,25.87
2023-02-04T20:31:31.547Z,26.00
2023-02-04T20:34:01.273Z,25.91
2023-02-04T20:36:38.935Z,25.83
2023-02-04T20:39:17.173Z,25.78
2023-02-04T20:41:47.204Z,25.78
2023-02-04T20:44:28.794Z,25.79
2023-02-04T20:47:20.921Z,25.91
2023-02-04T20:49:55.132Z,25.96
2023-02-04T20:52:44.341Z,26.06
2023-02-04T20:55:33.971Z,25.96
2023-02-04T20:58:09.540Z,25.92
2023-02-04T21:00:41.411Z,25.90
2023-02-04T21:03:13.734Z,25.84
2023-02-04T21:05:42.918Z,25.92
2023-02-04T21:08:33.719Z,25.94
2023-02-04T21:11:04.769Z,25.95
2023-02-04T21:13:34.395Z,25.84
2023-02-04T21:16:04.744Z,25.72
2023-02-04T21:18:37.176Z,25.69
2023-02-04T21:21:09.918Z,25.86
2023-02-04T21:23:40.071Z,25.85
2023-02-04T21:26:09.535Z,25.81
2023-02-04T21:28:39.542Z,25.76
2023-02-04T21:31:12.543Z,25.77
2023-02-04T21:33:41.877Z,25.83
2023-02-04T21:36:11.335Z,25.83
2023-02-04T21:38:41.213Z,25.91
2023-02-04T21:41:09.548Z,25.99
2023-02-04T21:43:39.556Z,25.96
2023-02-04T21:46:08.861Z,25.97
2023-02-04T21:48:37.656Z,25.97
2023-02-04T21:51:07.756Z,26.03
2023-02-04T21:53:37.493Z,26.05
2023-02-04T21:56:09.114Z,26.04
2023-02-04T21:58:40.158Z,25.98
2023-02-04T22:01:11.264Z,25.89
2023-02-04T22:03:40.844Z,25.88
2023-02-04T22:06:10.571Z,25.90
2023-02-04T22:08:40.448Z,25.88
2023-02-04T22:11:09.653Z,25.83
2023-02-04T22:13:40.189Z,25.76
2023-02-04T22:16:09.720Z,25.73
2023-02-04T22:18:39.621Z,25.81
2023-02-04T22:21:10.016Z,25.75
2023-02-04T22:23:41.665Z,25.97
2023-02-04T22:26:11.308Z,25.95
2023-02-04T22:28:41.997Z,25.82
2023-02-04T22:31:13.343Z,25.62
2023-02-04T22:33:43.258Z,25.75
2023-02-04T22:36:12.962Z,25.68
2023-02-04T22:38:43.168Z,25.73
2023-02-04T22:41:12.407Z,25.69
2023-02-04T22:43:42.377Z,25.81
2023-02-04T22:46:13.003Z,25.72
2023-02-04T22:48:44.046Z,25.86
2023-02-04T22:51:13.242Z,25.92
2023-02-04T22:53:43.718Z,26.02
2023-02-04T22:56:13.485Z,26.02
2023-02-04T22:58:44.085Z,26.01
2023-02-04T23:01:13.323Z,25.99
2023-02-04T23:03:43.310Z,25.98
2023-02-04T23:06:13.135Z,25.99
2023-02-04T23:08:43.784Z,25.95
2023-02-04T23:11:13.218Z,25.98
2023-02-04T23:13:43.735Z,25.96
2023-02-04T23:16:13.581Z,26.05
2023-02-04T23:18:43.568Z,26.13
2023-02-04T23:21:13.491Z,26.09
2023-02-04T23:23:44.507Z,26.14
2023-02-04T23:26:13.953Z,26.12
2023-02-04T23:28:44.016Z,26.10
2023-02-04T23:31:15.362Z,26.06
2023-02-04T23:33:44.991Z,26.04
2023-02-04T23:36:14.299Z,25.96
2023-02-04T23:38:43.761Z,25.96
2023-02-04T23:41:13.677Z,25.92
2023-02-04T23:43:45.538Z,25.92
2023-02-04T23:46:17.323Z,25.87
2023-02-04T23:48:47.676Z,25.85
2023-02-04T23:51:18.509Z,25.71
2023-02-04T23:53:49.787Z,25.71
2023-02-04T23:56:23.908Z,25.68
2023-02-04T23:58:55.767Z,25.65
